Terminal Aerodrome Forecast
Issued by NWS

Home | Current Version | Previous Version | Text Only | Print | Product List | Glossary On
Versions: 1 2 3 4 5 6 7 8 9 10 11 12 13 14 15 16 17 18 19
000
FTUS43 KDMX 161730
TAFOTM
TAF
KOTM 161730Z 1618/1718 18024G33KT P6SM SCT120
     FM170000 20017G24KT P6SM FEW060 BKN100
     FM170500 25014KT P6SM SCT025 BKN035
     FM171000 30012KT P6SM SCT012 BKN022
     FM171500 31013G19KT P6SM FEW020 SCT100=

USA.gov is the U.S. government's official web portal to all federal, state and local government web resources and services.